sensor_id;sensor_type;location;lat;lon;timestamp;temperature;humidity
20066;DHT22;10193;48.884;9.182;2022-10-03T00:00:00;14.20;95.30
20066;DHT22;10193;48.884;9.182;2022-10-03T00:02:43;14.20;95.20
20066;DHT22;10193;48.884;9.182;2022-10-03T00:05:26;14.30;95.10
20066;DHT22;10193;48.884;9.182;2022-10-03T00:08:03;14.20;95.00
20066;DHT22;10193;48.884;9.182;2022-10-03T00:10:45;14.20;95.10
20066;DHT22;10193;48.884;9.182;2022-10-03T00:13:21;14.20;95.10
20066;DHT22;10193;48.884;9.182;2022-10-03T00:16:00;14.20;95.10
20066;DHT22;10193;48.884;9.182;2022-10-03T00:18:39;14.20;95.20
20066;DHT22;10193;48.884;9.182;2022-10-03T00:21:16;14.20;95.30
20066;DHT22;10193;48.884;9.182;2022-10-03T00:23:51;14.20;95.30
20066;DHT22;10193;48.884;9.182;2022-10-03T00:26:29;14.20;95.40
20066;DHT22;10193;48.884;9.182;2022-10-03T00:29:22;14.20;95.50
20066;DHT22;10193;48.884;9.182;2022-10-03T00:31:57;14.20;95.50
20066;DHT22;10193;48.884;9.182;2022-10-03T00:34:31;14.20;95.50
20066;DHT22;10193;48.884;9.182;2022-10-03T00:37:13;14.20;95.40
20066;DHT22;10193;48.884;9.182;2022-10-03T00:40:03;14.20;95.50
20066;DHT22;10193;48.884;9.182;2022-10-03T00:43:01;14.20;95.50
20066;DHT22;10193;48.884;9.182;2022-10-03T00:45:54;14.20;95.60
20066;DHT22;10193;48.884;9.182;2022-10-03T00:48:58;14.20;95.70
20066;DHT22;10193;48.884;9.182;2022-10-03T00:51:42;14.20;95.70
20066;DHT22;10193;48.884;9.182;2022-10-03T00:54:30;14.20;95.80
20066;DHT22;10193;48.884;9.182;2022-10-03T00:57:14;14.20;95.80
20066;DHT22;10193;48.884;9.182;2022-10-03T01:00:04;14.20;95.80
20066;DHT22;10193;48.884;9.182;2022-10-03T01:02:47;14.20;95.80
20066;DHT22;10193;48.884;9.182;2022-10-03T01:05:20;14.30;95.90
20066;DHT22;10193;48.884;9.182;2022-10-03T01:08:19;14.30;96.00
20066;DHT22;10193;48.884;9.182;2022-10-03T01:10:54;14.30;96.00
20066;DHT22;10193;48.884;9.182;2022-10-03T01:13:30;14.30;95.90
20066;DHT22;10193;48.884;9.182;2022-10-03T01:16:12;14.30;95.90
20066;DHT22;10193;48.884;9.182;2022-10-03T01:18:53;14.30;95.90
20066;DHT22;10193;48.884;9.182;2022-10-03T01:21:33;14.30;95.90
20066;DHT22;10193;48.884;9.182;2022-10-03T01:24:33;14.30;95.90
20066;DHT22;10193;48.884;9.182;2022-10-03T01:27:03;14.40;96.00
20066;DHT22;10193;48.884;9.182;2022-10-03T01:29:49;14.40;96.10
20066;DHT22;10193;48.884;9.182;2022-10-03T01:32:42;14.40;96.00
20066;DHT22;10193;48.884;9.182;2022-10-03T01:35:17;14.40;95.90
20066;DHT22;10193;48.884;9.182;2022-10-03T01:37:53;14.40;95.90
20066;DHT22;10193;48.884;9.182;2022-10-03T01:40:27;14.50;95.90
20066;DHT22;10193;48.884;9.182;2022-10-03T01:43:10;14.40;95.90
20066;DHT22;10193;48.884;9.182;2022-10-03T01:45:52;14.40;95.90
20066;DHT22;10193;48.884;9.182;2022-10-03T01:48:29;14.50;95.80
20066;DHT22;10193;48.884;9.182;2022-10-03T01:51:00;14.40;95.70
20066;DHT22;10193;48.884;9.182;2022-10-03T01:53:39;14.40;95.60
20066;DHT22;10193;48.884;9.182;2022-10-03T01:56:17;14.40;95.50
20066;DHT22;10193;48.884;9.182;2022-10-03T01:58:52;14.50;95.60
20066;DHT22;10193;48.884;9.182;2022-10-03T02:01:30;14.40;95.60
20066;DHT22;10193;48.884;9.182;2022-10-03T02:04:04;14.40;95.60
20066;DHT22;10193;48.884;9.182;2022-10-03T02:06:41;14.40;95.50
20066;DHT22;10193;48.884;9.182;2022-10-03T02:09:17;14.40;95.50
20066;DHT22;10193;48.884;9.182;2022-10-03T02:11:59;14.40;95.40
20066;DHT22;10193;48.884;9.182;2022-10-03T02:14:33;14.40;95.40
20066;DHT22;10193;48.884;9.182;2022-10-03T02:17:05;14.40;95.50
20066;DHT22;10193;48.884;9.182;2022-10-03T02:19:41;14.40;95.50
20066;DHT22;10193;48.884;9.182;2022-10-03T02:22:14;14.30;95.50
20066;DHT22;10193;48.884;9.182;2022-10-03T02:24:49;14.40;95.50
20066;DHT22;10193;48.884;9.182;2022-10-03T02:27:59;14.40;95.50
20066;DHT22;10193;48.884;9.182;2022-10-03T02:30:34;14.30;95.60
20066;DHT22;10193;48.884;9.182;2022-10-03T02:33:44;14.30;95.50
20066;DHT22;10193;48.884;9.182;2022-10-03T02:36:43;14.30;95.50
20066;DHT22;10193;48.884;9.182;2022-10-03T02:46:04;14.30;95.60
20066;DHT22;10193;48.884;9.182;2022-10-03T02:51:48;14.30;95.60
20066;DHT22;10193;48.884;9.182;2022-10-03T02:54:52;14.30;95.60
20066;DHT22;10193;48.884;9.182;2022-10-03T02:57:47;14.30;95.50
20066;DHT22;10193;48.884;9.182;2022-10-03T03:00:22;14.30;95.20
20066;DHT22;10193;48.884;9.182;2022-10-03T03:03:23;14.30;94.90
20066;DHT22;10193;48.884;9.182;2022-10-03T03:06:14;14.20;94.80
20066;DHT22;10193;48.884;9.182;2022-10-03T03:09:02;14.20;94.80
20066;DHT22;10193;48.884;9.182;2022-10-03T03:17:31;14.20;95.20
20066;DHT22;10193;48.884;9.182;2022-10-03T03:20:19;14.10;95.30
20066;DHT22;10193;48.884;9.182;2022-10-03T03:23:03;14.10;95.40
20066;DHT22;10193;48.884;9.182;2022-10-03T03:26:01;14.20;95.50
20066;DHT22;10193;48.884;9.182;2022-10-03T03:28:38;14.10;95.60
20066;DHT22;10193;48.884;9.182;2022-10-03T03:31:10;14.10;95.60
20066;DHT22;10193;48.884;9.182;2022-10-03T03:33:51;14.10;95.70
20066;DHT22;10193;48.884;9.182;2022-10-03T03:36:27;14.10;95.70
20066;DHT22;10193;48.884;9.182;2022-10-03T03:39:05;14.20;95.70
20066;DHT22;10193;48.884;9.182;2022-10-03T03:41:52;14.20;95.60
20066;DHT22;10193;48.884;9.182;2022-10-03T03:44:46;14.20;95.60
20066;DHT22;10193;48.884;9.182;2022-10-03T03:47:51;14.20;95.60
20066;DHT22;10193;48.884;9.182;2022-10-03T03:50:35;14.20;95.60
20066;DHT22;10193;48.884;9.182;2022-10-03T03:53:39;14.20;95.70
20066;DHT22;10193;48.884;9.182;2022-10-03T03:56:32;14.20;95.70
20066;DHT22;10193;48.884;9.182;2022-10-03T03:59:13;14.20;95.60
20066;DHT22;10193;48.884;9.182;2022-10-03T04:01:58;14.20;95.60
20066;DHT22;10193;48.884;9.182;2022-10-03T04:04:43;14.20;95.50
20066;DHT22;10193;48.884;9.182;2022-10-03T04:07:21;14.20;95.50
20066;DHT22;10193;48.884;9.182;2022-10-03T04:10:14;14.20;95.60
20066;DHT22;10193;48.884;9.182;2022-10-03T04:13:02;14.20;95.70
20066;DHT22;10193;48.884;9.182;2022-10-03T04:15:47;14.20;95.70
20066;DHT22;10193;48.884;9.182;2022-10-03T04:18:41;14.20;95.70
20066;DHT22;10193;48.884;9.182;2022-10-03T04:21:33;14.20;95.60
20066;DHT22;10193;48.884;9.182;2022-10-03T04:24:28;14.20;95.60
20066;DHT22;10193;48.884;9.182;2022-10-03T04:27:10;14.20;95.50
20066;DHT22;10193;48.884;9.182;2022-10-03T04:29:45;14.20;95.40
20066;DHT22;10193;48.884;9.182;2022-10-03T04:32:38;14.20;95.30
20066;DHT22;10193;48.884;9.182;2022-10-03T04:35:22;14.20;95.60
20066;DHT22;10193;48.884;9.182;2022-10-03T04:37:59;14.20;95.30
20066;DHT22;10193;48.884;9.182;2022-10-03T04:40:40;14.20;95.30
20066;DHT22;10193;48.884;9.182;2022-10-03T04:43:12;14.20;95.40
20066;DHT22;10193;48.884;9.182;2022-10-03T04:45:59;14.20;95.50
20066;DHT22;10193;48.884;9.182;2022-10-03T04:48:34;14.20;95.90
20066;DHT22;10193;48.884;9.182;2022-10-03T04:51:07;14.20;95.50
20066;DHT22;10193;48.884;9.182;2022-10-03T04:53:48;14.20;95.70
20066;DHT22;10193;48.884;9.182;2022-10-03T04:56:32;14.20;95.60
20066;DHT22;10193;48.884;9.182;2022-10-03T04:59:07;14.20;95.70
20066;DHT22;10193;48.884;9.182;2022-10-03T05:01:44;14.30;95.70
20066;DHT22;10193;48.884;9.182;2022-10-03T05:04:20;14.30;95.50
20066;DHT22;10193;48.884;9.182;2022-10-03T05:06:57;14.30;95.50
20066;DHT22;10193;48.884;9.182;2022-10-03T05:09:31;14.30;95.40
20066;DHT22;10193;48.884;9.182;2022-10-03T05:12:04;14.30;95.40
20066;DHT22;10193;48.884;9.182;2022-10-03T05:14:46;14.30;95.10
20066;DHT22;10193;48.884;9.182;2022-10-03T05:17:21;14.20;95.00
20066;DHT22;10193;48.884;9.182;2022-10-03T05:22:59;14.20;94.90
20066;DHT22;10193;48.884;9.182;2022-10-03T05:25:37;14.20;94.80
20066;DHT22;10193;48.884;9.182;2022-10-03T05:28:17;14.20;95.00
20066;DHT22;10193;48.884;9.182;2022-10-03T05:30:51;14.20;95.10
20066;DHT22;10193;48.884;9.182;2022-10-03T05:33:30;14.20;95.20
20066;DHT22;10193;48.884;9.182;2022-10-03T05:36:14;14.20;95.10
20066;DHT22;10193;48.884;9.182;2022-10-03T05:39:24;14.20;95.10
20066;DHT22;10193;48.884;9.182;2022-10-03T05:41:53;14.10;95.30
20066;DHT22;10193;48.884;9.182;2022-10-03T05:44:31;14.20;95.00
20066;DHT22;10193;48.884;9.182;2022-10-03T05:47:10;14.10;95.20
20066;DHT22;10193;48.884;9.182;2022-10-03T05:50:13;14.10;94.60
20066;DHT22;10193;48.884;9.182;2022-10-03T05:52:55;14.10;94.50
20066;DHT22;10193;48.884;9.182;2022-10-03T05:55:33;14.00;94.50
20066;DHT22;10193;48.884;9.182;2022-10-03T05:58:32;14.00;94.50
20066;DHT22;10193;48.884;9.182;2022-10-03T06:06:50;13.90;95.10
20066;DHT22;10193;48.884;9.182;2022-10-03T06:12:28;14.00;95.60
20066;DHT22;10193;48.884;9.182;2022-10-03T06:15:18;14.00;95.60
20066;DHT22;10193;48.884;9.182;2022-10-03T06:18:01;14.00;95.40
20066;DHT22;10193;48.884;9.182;2022-10-03T06:20:54;14.00;95.10
20066;DHT22;10193;48.884;9.182;2022-10-03T06:27:03;14.00;94.70
20066;DHT22;10193;48.884;9.182;2022-10-03T06:30:04;14.00;94.90
20066;DHT22;10193;48.884;9.182;2022-10-03T06:33:03;13.90;94.50
20066;DHT22;10193;48.884;9.182;2022-10-03T06:35:58;13.90;94.60
20066;DHT22;10193;48.884;9.182;2022-10-03T06:39:17;13.90;94.70
20066;DHT22;10193;48.884;9.182;2022-10-03T06:42:19;13.90;94.90
20066;DHT22;10193;48.884;9.182;2022-10-03T06:45:07;13.90;95.10
20066;DHT22;10193;48.884;9.182;2022-10-03T06:47:49;13.90;95.30
20066;DHT22;10193;48.884;9.182;2022-10-03T06:50:34;13.90;95.40
20066;DHT22;10193;48.884;9.182;2022-10-03T06:53:35;13.90;95.50
20066;DHT22;10193;48.884;9.182;2022-10-03T06:56:39;13.90;95.70
20066;DHT22;10193;48.884;9.182;2022-10-03T06:59:23;13.90;95.80
20066;DHT22;10193;48.884;9.182;2022-10-03T07:11:47;14.10;95.80
20066;DHT22;10193;48.884;9.182;2022-10-03T07:14:49;14.10;95.80
20066;DHT22;10193;48.884;9.182;2022-10-03T07:17:32;14.10;95.90
20066;DHT22;10193;48.884;9.182;2022-10-03T07:23:37;14.10;95.80
20066;DHT22;10193;48.884;9.182;2022-10-03T07:26:37;14.10;95.70
20066;DHT22;10193;48.884;9.182;2022-10-03T07:29:31;14.10;95.80
20066;DHT22;10193;48.884;9.182;2022-10-03T07:32:25;14.20;96.20
20066;DHT22;10193;48.884;9.182;2022-10-03T07:35:23;14.20;96.40
20066;DHT22;10193;48.884;9.182;2022-10-03T07:38:35;14.20;97.00
20066;DHT22;10193;48.884;9.182;2022-10-03T07:41:51;14.30;97.60
20066;DHT22;10193;48.884;9.182;2022-10-03T07:44:40;14.30;97.40
20066;DHT22;10193;48.884;9.182;2022-10-03T07:47:53;14.40;97.30
20066;DHT22;10193;48.884;9.182;2022-10-03T07:50:43;14.50;97.30
20066;DHT22;10193;48.884;9.182;2022-10-03T07:53:39;14.60;97.70
20066;DHT22;10193;48.884;9.182;2022-10-03T07:56:20;14.60;97.40
20066;DHT22;10193;48.884;9.182;2022-10-03T07:59:10;14.70;97.00
20066;DHT22;10193;48.884;9.182;2022-10-03T08:01:48;14.70;96.70
20066;DHT22;10193;48.884;9.182;2022-10-03T08:04:43;14.70;96.00
20066;DHT22;10193;48.884;9.182;2022-10-03T08:07:27;14.70;95.60
20066;DHT22;10193;48.884;9.182;2022-10-03T08:10:13;14.70;95.50
20066;DHT22;10193;48.884;9.182;2022-10-03T08:16:05;14.70;95.60
20066;DHT22;10193;48.884;9.182;2022-10-03T08:19:04;14.70;95.90
20066;DHT22;10193;48.884;9.182;2022-10-03T08:22:01;14.70;95.80
20066;DHT22;10193;48.884;9.182;2022-10-03T08:24:48;14.70;95.90
20066;DHT22;10193;48.884;9.182;2022-10-03T08:27:43;14.70;96.00
20066;DHT22;10193;48.884;9.182;2022-10-03T08:30:20;14.70;96.60
20066;DHT22;10193;48.884;9.182;2022-10-03T08:33:11;14.70;97.20
20066;DHT22;10193;48.884;9.182;2022-10-03T08:39:09;14.80;96.90
20066;DHT22;10193;48.884;9.182;2022-10-03T08:48:17;15.00;96.30
20066;DHT22;10193;48.884;9.182;2022-10-03T08:51:10;15.00;96.70
20066;DHT22;10193;48.884;9.182;2022-10-03T08:53:56;15.00;96.60
20066;DHT22;10193;48.884;9.182;2022-10-03T08:56:43;15.10;96.70
20066;DHT22;10193;48.884;9.182;2022-10-03T09:02:37;15.20;97.00
20066;DHT22;10193;48.884;9.182;2022-10-03T09:05:30;15.20;97.50
20066;DHT22;10193;48.884;9.182;2022-10-03T09:14:37;15.50;98.40
20066;DHT22;10193;48.884;9.182;2022-10-03T09:17:26;15.60;98.50
20066;DHT22;10193;48.884;9.182;2022-10-03T09:20:18;15.70;98.50
20066;DHT22;10193;48.884;9.182;2022-10-03T09:23:24;15.80;97.70
20066;DHT22;10193;48.884;9.182;2022-10-03T09:26:14;15.80;97.60
20066;DHT22;10193;48.884;9.182;2022-10-03T09:32:14;16.00;97.10
20066;DHT22;10193;48.884;9.182;2022-10-03T09:41:32;16.10;97.30
20066;DHT22;10193;48.884;9.182;2022-10-03T09:44:19;16.10;97.30
20066;DHT22;10193;48.884;9.182;2022-10-03T09:47:11;16.20;98.30
20066;DHT22;10193;48.884;9.182;2022-10-03T09:50:13;16.20;98.40
20066;DHT22;10193;48.884;9.182;2022-10-03T09:53:06;16.30;98.50
20066;DHT22;10193;48.884;9.182;2022-10-03T09:56:01;16.40;98.00
20066;DHT22;10193;48.884;9.182;2022-10-03T09:58:58;16.50;97.50
20066;DHT22;10193;48.884;9.182;2022-10-03T10:01:34;16.50;97.90
20066;DHT22;10193;48.884;9.182;2022-10-03T10:04:38;16.60;98.50
20066;DHT22;10193;48.884;9.182;2022-10-03T10:16:50;16.70;95.60
20066;DHT22;10193;48.884;9.182;2022-10-03T10:19:31;16.60;95.60
20066;DHT22;10193;48.884;9.182;2022-10-03T10:22:32;16.60;95.50
20066;DHT22;10193;48.884;9.182;2022-10-03T10:28:31;16.50;95.80
20066;DHT22;10193;48.884;9.182;2022-10-03T10:31:42;16.50;95.50
20066;DHT22;10193;48.884;9.182;2022-10-03T10:37:53;16.40;95.30
20066;DHT22;10193;48.884;9.182;2022-10-03T10:40:56;16.30;94.80
20066;DHT22;10193;48.884;9.182;2022-10-03T10:44:03;16.30;94.80
20066;DHT22;10193;48.884;9.182;2022-10-03T10:47:10;16.20;94.90
20066;DHT22;10193;48.884;9.182;2022-10-03T10:50:07;16.20;95.70
20066;DHT22;10193;48.884;9.182;2022-10-03T10:59:38;16.10;95.10
20066;DHT22;10193;48.884;9.182;2022-10-03T11:24:19;16.40;96.60
20066;DHT22;10193;48.884;9.182;2022-10-03T11:27:36;16.50;96.80
20066;DHT22;10193;48.884;9.182;2022-10-03T11:30:28;16.50;96.00
20066;DHT22;10193;48.884;9.182;2022-10-03T11:33:39;16.60;95.90
20066;DHT22;10193;48.884;9.182;2022-10-03T11:36:45;16.70;95.20
20066;DHT22;10193;48.884;9.182;2022-10-03T11:39:19;16.80;95.60
20066;DHT22;10193;48.884;9.182;2022-10-03T11:41:54;16.90;97.30
20066;DHT22;10193;48.884;9.182;2022-10-03T11:44:29;16.90;98.10
20066;DHT22;10193;48.884;9.182;2022-10-03T11:47:37;17.10;98.90
20066;DHT22;10193;48.884;9.182;2022-10-03T11:50:42;17.10;96.50
20066;DHT22;10193;48.884;9.182;2022-10-03T11:53:36;17.30;96.90
20066;DHT22;10193;48.884;9.182;2022-10-03T12:02:11;17.70;95.50
20066;DHT22;10193;48.884;9.182;2022-10-03T12:04:50;17.80;96.20
20066;DHT22;10193;48.884;9.182;2022-10-03T12:07:36;17.90;95.90
20066;DHT22;10193;48.884;9.182;2022-10-03T12:10:32;18.00;96.10
20066;DHT22;10193;48.884;9.182;2022-10-03T12:13:08;18.00;94.40
20066;DHT22;10193;48.884;9.182;2022-10-03T12:15:41;18.00;94.40
20066;DHT22;10193;48.884;9.182;2022-10-03T12:18:13;18.00;94.30
20066;DHT22;10193;48.884;9.182;2022-10-03T12:24:01;18.00;93.00
20066;DHT22;10193;48.884;9.182;2022-10-03T12:26:40;17.90;92.80
20066;DHT22;10193;48.884;9.182;2022-10-03T12:29:10;17.90;93.50
20066;DHT22;10193;48.884;9.182;2022-10-03T12:31:41;17.90;94.50
20066;DHT22;10193;48.884;9.182;2022-10-03T12:34:25;17.90;94.20
20066;DHT22;10193;48.884;9.182;2022-10-03T12:37:10;17.90;93.00
20066;DHT22;10193;48.884;9.182;2022-10-03T12:39:50;17.90;93.10
20066;DHT22;10193;48.884;9.182;2022-10-03T12:42:27;17.90;93.10
20066;DHT22;10193;48.884;9.182;2022-10-03T12:44:58;17.90;93.80
20066;DHT22;10193;48.884;9.182;2022-10-03T12:47:32;18.00;94.30
20066;DHT22;10193;48.884;9.182;2022-10-03T12:50:14;18.00;94.10
20066;DHT22;10193;48.884;9.182;2022-10-03T12:52:51;18.00;94.20
20066;DHT22;10193;48.884;9.182;2022-10-03T12:55:26;18.10;95.20
20066;DHT22;10193;48.884;9.182;2022-10-03T12:58:01;18.10;95.40
20066;DHT22;10193;48.884;9.182;2022-10-03T13:00:33;18.20;94.90
20066;DHT22;10193;48.884;9.182;2022-10-03T13:03:19;18.30;94.70
20066;DHT22;10193;48.884;9.182;2022-10-03T13:06:02;18.30;93.40
20066;DHT22;10193;48.884;9.182;2022-10-03T13:08:41;18.40;93.30
20066;DHT22;10193;48.884;9.182;2022-10-03T13:11:22;18.40;93.50
20066;DHT22;10193;48.884;9.182;2022-10-03T13:13:59;18.50;92.10
20066;DHT22;10193;48.884;9.182;2022-10-03T13:16:30;18.40;92.60
20066;DHT22;10193;48.884;9.182;2022-10-03T13:19:00;18.40;93.10
20066;DHT22;10193;48.884;9.182;2022-10-03T13:21:49;18.30;92.40
20066;DHT22;10193;48.884;9.182;2022-10-03T13:24:26;18.30;91.50
20066;DHT22;10193;48.884;9.182;2022-10-03T13:27:04;18.30;91.80
20066;DHT22;10193;48.884;9.182;2022-10-03T13:29:39;18.30;91.40
20066;DHT22;10193;48.884;9.182;2022-10-03T13:32:27;18.30;92.30
20066;DHT22;10193;48.884;9.182;2022-10-03T13:35:19;18.20;91.90
20066;DHT22;10193;48.884;9.182;2022-10-03T13:41:10;18.20;91.00
20066;DHT22;10193;48.884;9.182;2022-10-03T13:43:44;18.10;91.10
20066;DHT22;10193;48.884;9.182;2022-10-03T13:46:15;18.10;91.90
20066;DHT22;10193;48.884;9.182;2022-10-03T13:48:51;18.10;92.20
20066;DHT22;10193;48.884;9.182;2022-10-03T13:51:26;18.10;91.50
20066;DHT22;10193;48.884;9.182;2022-10-03T13:54:02;18.10;91.60
20066;DHT22;10193;48.884;9.182;2022-10-03T13:56:39;18.10;92.10
20066;DHT22;10193;48.884;9.182;2022-10-03T14:02:10;18.10;91.80
20066;DHT22;10193;48.884;9.182;2022-10-03T14:05:05;18.10;92.10
20066;DHT22;10193;48.884;9.182;2022-10-03T14:07:41;18.10;90.90
20066;DHT22;10193;48.884;9.182;2022-10-03T14:10:19;18.10;92.10
20066;DHT22;10193;48.884;9.182;2022-10-03T14:13:03;18.10;92.30
20066;DHT22;10193;48.884;9.182;2022-10-03T14:15:46;18.10;92.30
20066;DHT22;10193;48.884;9.182;2022-10-03T14:18:29;18.20;92.00
20066;DHT22;10193;48.884;9.182;2022-10-03T14:21:36;18.20;91.40
20066;DHT22;10193;48.884;9.182;2022-10-03T14:24:16;18.20;91.40
20066;DHT22;10193;48.884;9.182;2022-10-03T14:26:47;18.30;91.80
20066;DHT22;10193;48.884;9.182;2022-10-03T14:29:21;18.30;92.90
20066;DHT22;10193;48.884;9.182;2022-10-03T14:31:56;18.30;92.60
20066;DHT22;10193;48.884;9.182;2022-10-03T14:34:39;18.30;92.20
20066;DHT22;10193;48.884;9.182;2022-10-03T14:37:15;18.30;91.60
20066;DHT22;10193;48.884;9.182;2022-10-03T14:39:52;18.40;91.90
20066;DHT22;10193;48.884;9.182;2022-10-03T14:42:40;18.40;92.20
20066;DHT22;10193;48.884;9.182;2022-10-03T14:45:13;18.40;91.00
20066;DHT22;10193;48.884;9.182;2022-10-03T14:47:47;18.50;93.10
20066;DHT22;10193;48.884;9.182;2022-10-03T14:50:17;18.60;92.10
20066;DHT22;10193;48.884;9.182;2022-10-03T14:52:48;18.60;92.90
20066;DHT22;10193;48.884;9.182;2022-10-03T14:55:19;18.70;92.40
20066;DHT22;10193;48.884;9.182;2022-10-03T14:57:50;18.70;92.50
20066;DHT22;10193;48.884;9.182;2022-10-03T15:00:26;18.70;92.30
20066;DHT22;10193;48.884;9.182;2022-10-03T15:02:54;18.70;91.00
20066;DHT22;10193;48.884;9.182;2022-10-03T15:05:32;18.70;91.80
20066;DHT22;10193;48.884;9.182;2022-10-03T15:08:01;18.70;90.20
20066;DHT22;10193;48.884;9.182;2022-10-03T15:10:29;18.70;91.40
20066;DHT22;10193;48.884;9.182;2022-10-03T15:13:01;18.70;91.80
20066;DHT22;10193;48.884;9.182;2022-10-03T15:15:32;18.70;91.30
20066;DHT22;10193;48.884;9.182;2022-10-03T15:18:02;18.70;91.30
20066;DHT22;10193;48.884;9.182;2022-10-03T15:20:33;18.70;91.00
20066;DHT22;10193;48.884;9.182;2022-10-03T15:23:03;18.70;91.10
20066;DHT22;10193;48.884;9.182;2022-10-03T15:25:34;18.70;91.70
20066;DHT22;10193;48.884;9.182;2022-10-03T15:28:05;18.70;91.20
20066;DHT22;10193;48.884;9.182;2022-10-03T15:30:36;18.60;91.40
20066;DHT22;10193;48.884;9.182;2022-10-03T15:33:10;18.60;91.20
20066;DHT22;10193;48.884;9.182;2022-10-03T15:35:39;18.60;90.40
20066;DHT22;10193;48.884;9.182;2022-10-03T15:38:11;18.60;91.00
20066;DHT22;10193;48.884;9.182;2022-10-03T15:40:43;18.60;90.70
20066;DHT22;10193;48.884;9.182;2022-10-03T15:43:26;18.60;90.80
20066;DHT22;10193;48.884;9.182;2022-10-03T15:45:55;18.50;88.90
20066;DHT22;10193;48.884;9.182;2022-10-03T15:48:24;18.50;90.90
20066;DHT22;10193;48.884;9.182;2022-10-03T15:50:53;18.50;90.80
20066;DHT22;10193;48.884;9.182;2022-10-03T15:53:24;18.50;91.00
20066;DHT22;10193;48.884;9.182;2022-10-03T15:56:07;18.40;90.80
20066;DHT22;10193;48.884;9.182;2022-10-03T15:58:37;18.40;90.20
20066;DHT22;10193;48.884;9.182;2022-10-03T16:01:07;18.30;90.30
20066;DHT22;10193;48.884;9.182;2022-10-03T16:03:41;18.30;90.10
20066;DHT22;10193;48.884;9.182;2022-10-03T16:06:17;18.30;89.50
20066;DHT22;10193;48.884;9.182;2022-10-03T16:08:55;18.20;89.10
20066;DHT22;10193;48.884;9.182;2022-10-03T16:11:25;18.20;88.90
20066;DHT22;10193;48.884;9.182;2022-10-03T16:14:03;18.10;89.50
20066;DHT22;10193;48.884;9.182;2022-10-03T16:16:36;18.10;88.40
20066;DHT22;10193;48.884;9.182;2022-10-03T16:19:25;18.00;89.90
20066;DHT22;10193;48.884;9.182;2022-10-03T16:22:00;17.90;86.50
20066;DHT22;10193;48.884;9.182;2022-10-03T16:24:33;17.90;89.00
20066;DHT22;10193;48.884;9.182;2022-10-03T16:27:12;17.90;89.50
20066;DHT22;10193;48.884;9.182;2022-10-03T16:29:44;17.80;87.00
20066;DHT22;10193;48.884;9.182;2022-10-03T16:32:16;17.70;88.90
20066;DHT22;10193;48.884;9.182;2022-10-03T16:34:46;17.70;89.20
20066;DHT22;10193;48.884;9.182;2022-10-03T16:37:17;17.70;89.00
20066;DHT22;10193;48.884;9.182;2022-10-03T16:39:51;17.60;88.80
20066;DHT22;10193;48.884;9.182;2022-10-03T16:42:22;17.50;87.80
20066;DHT22;10193;48.884;9.182;2022-10-03T16:44:51;17.50;88.20
20066;DHT22;10193;48.884;9.182;2022-10-03T16:47:29;17.50;88.80
20066;DHT22;10193;48.884;9.182;2022-10-03T16:49:59;17.40;86.80
20066;DHT22;10193;48.884;9.182;2022-10-03T16:52:58;17.30;87.40
20066;DHT22;10193;48.884;9.182;2022-10-03T16:55:28;17.30;88.40
20066;DHT22;10193;48.884;9.182;2022-10-03T16:57:58;17.20;87.90
20066;DHT22;10193;48.884;9.182;2022-10-03T17:00:32;17.20;88.00
20066;DHT22;10193;48.884;9.182;2022-10-03T17:03:01;17.10;87.00
20066;DHT22;10193;48.884;9.182;2022-10-03T17:05:35;17.00;87.80
20066;DHT22;10193;48.884;9.182;2022-10-03T17:08:10;17.00;86.80
20066;DHT22;10193;48.884;9.182;2022-10-03T17:10:39;16.90;86.80
20066;DHT22;10193;48.884;9.182;2022-10-03T17:13:11;16.90;87.50
20066;DHT22;10193;48.884;9.182;2022-10-03T17:15:47;16.80;86.70
20066;DHT22;10193;48.884;9.182;2022-10-03T17:18:22;16.70;86.30
20066;DHT22;10193;48.884;9.182;2022-10-03T17:20:54;16.70;86.20
20066;DHT22;10193;48.884;9.182;2022-10-03T17:23:28;16.60;87.80
20066;DHT22;10193;48.884;9.182;2022-10-03T17:26:01;16.60;86.60
20066;DHT22;10193;48.884;9.182;2022-10-03T17:28:34;16.50;87.20
20066;DHT22;10193;48.884;9.182;2022-10-03T17:31:04;16.50;87.20
20066;DHT22;10193;48.884;9.182;2022-10-03T17:33:39;16.50;87.50
20066;DHT22;10193;48.884;9.182;2022-10-03T17:36:32;16.40;86.40
20066;DHT22;10193;48.884;9.182;2022-10-03T17:39:06;16.30;85.20
20066;DHT22;10193;48.884;9.182;2022-10-03T17:41:39;16.30;87.50
20066;DHT22;10193;48.884;9.182;2022-10-03T17:44:22;16.30;87.00
20066;DHT22;10193;48.884;9.182;2022-10-03T17:46:57;16.20;86.00
20066;DHT22;10193;48.884;9.182;2022-10-03T17:49:39;16.10;86.70
20066;DHT22;10193;48.884;9.182;2022-10-03T17:52:14;16.10;86.50
20066;DHT22;10193;48.884;9.182;2022-10-03T17:54:44;16.10;86.80
20066;DHT22;10193;48.884;9.182;2022-10-03T17:57:15;16.00;87.60
20066;DHT22;10193;48.884;9.182;2022-10-03T17:59:52;16.00;87.30
20066;DHT22;10193;48.884;9.182;2022-10-03T18:02:32;15.90;86.90
20066;DHT22;10193;48.884;9.182;2022-10-03T18:05:06;15.90;86.10
20066;DHT22;10193;48.884;9.182;2022-10-03T18:07:36;15.80;87.30
20066;DHT22;10193;48.884;9.182;2022-10-03T18:10:04;15.80;87.50
20066;DHT22;10193;48.884;9.182;2022-10-03T18:12:35;15.80;87.70
20066;DHT22;10193;48.884;9.182;2022-10-03T18:15:43;15.70;87.60
20066;DHT22;10193;48.884;9.182;2022-10-03T18:21:58;15.60;85.10
20066;DHT22;10193;48.884;9.182;2022-10-03T18:24:46;15.60;86.30
20066;DHT22;10193;48.884;9.182;2022-10-03T18:27:37;15.50;86.10
20066;DHT22;10193;48.884;9.182;2022-10-03T18:30:14;15.50;86.30
20066;DHT22;10193;48.884;9.182;2022-10-03T18:32:43;15.40;87.10
20066;DHT22;10193;48.884;9.182;2022-10-03T18:35:14;15.40;88.10
20066;DHT22;10193;48.884;9.182;2022-10-03T18:38:11;15.40;87.80
20066;DHT22;10193;48.884;9.182;2022-10-03T18:40:44;15.30;85.60
20066;DHT22;10193;48.884;9.182;2022-10-03T18:43:29;15.30;87.70
20066;DHT22;10193;48.884;9.182;2022-10-03T18:46:13;15.20;86.10
20066;DHT22;10193;48.884;9.182;2022-10-03T18:48:51;15.20;86.20
20066;DHT22;10193;48.884;9.182;2022-10-03T18:51:26;15.20;88.00
20066;DHT22;10193;48.884;9.182;2022-10-03T18:53:58;15.20;87.80
20066;DHT22;10193;48.884;9.182;2022-10-03T18:56:28;15.20;88.30
20066;DHT22;10193;48.884;9.182;2022-10-03T18:59:06;15.10;88.30
20066;DHT22;10193;48.884;9.182;2022-10-03T19:01:44;15.10;87.00
20066;DHT22;10193;48.884;9.182;2022-10-03T19:04:20;15.00;87.50
20066;DHT22;10193;48.884;9.182;2022-10-03T19:06:50;15.00;88.00
20066;DHT22;10193;48.884;9.182;2022-10-03T19:09:23;15.00;88.20
20066;DHT22;10193;48.884;9.182;2022-10-03T19:11:55;15.00;87.80
20066;DHT22;10193;48.884;9.182;2022-10-03T19:14:30;14.90;87.50
20066;DHT22;10193;48.884;9.182;2022-10-03T19:17:13;14.90;87.70
20066;DHT22;10193;48.884;9.182;2022-10-03T19:19:49;14.80;86.80
20066;DHT22;10193;48.884;9.182;2022-10-03T19:22:20;14.80;87.40